Time;durP1;ratioP1;P1;durP2;ratioP2;P2;SDS_P1;SDS_P2;PMS_P1;PMS_P2;Temp;Humidity;BMP_temperature;BMP_pressure;BME280_temperature;BME280_humidity;BME280_pressure;Samples;Min_cycle;Max_cycle;Signal;HPM_P1;HPM_P2
2021/04/03 00:01:01;;;;;;;7.10;5.65;;;;;;;10.25;58.99;99940.48;1773658;80;21558;-63
2021/04/03 00:03:29;;;;;;;8.00;5.47;;;;;;;10.26;58.86;99943.99;1761937;81;21597;-52
2021/04/03 00:05:58;;;;;;;6.28;5.45;;;;;;;10.19;58.73;99945.84;1786249;78;21139;-63
2021/04/03 00:08:26;;;;;;;6.22;5.33;;;;;;;10.17;58.74;99943.69;1771416;80;21174;-54
2021/04/03 00:11:00;;;;;;;7.95;5.45;;;;;;;10.11;59.06;99946.45;1761525;80;21129;-63
2021/04/03 00:13:35;;;;;;;7.20;6.03;;;;;;;10.12;58.94;99946.41;1728191;81;21127;-64
2021/04/03 00:16:06;;;;;;;7.80;6.17;;;;;;;10.03;58.97;99949.19;1730168;81;21156;-52
2021/04/03 00:18:34;;;;;;;7.87;6.50;;;;;;;10.04;58.97;99948.77;1679593;83;21178;-52
2021/04/03 00:21:02;;;;;;;8.50;6.78;;;;;;;10.01;59.03;99948.81;1709974;82;21180;-51
2021/04/03 00:23:30;;;;;;;8.95;6.95;;;;;;;9.98;58.90;99952.34;1716491;81;21164;-52
2021/04/03 00:25:58;;;;;;;9.00;6.90;;;;;;;9.95;59.07;99953.27;1728866;82;21169;-52
2021/04/03 00:28:28;;;;;;;9.60;6.97;;;;;;;9.92;59.06;99955.95;1714063;82;21557;-51
2021/04/03 00:30:56;;;;;;;8.83;7.20;;;;;;;9.91;59.02;99955.53;1737194;82;21174;-64
2021/04/03 00:33:23;;;;;;;9.35;7.22;;;;;;;9.86;59.05;99950.79;1737079;82;21178;-51
2021/04/03 00:35:51;;;;;;;8.23;7.05;;;;;;;9.78;59.17;99954.87;1718916;82;21198;-64
2021/04/03 00:38:19;;;;;;;9.98;8.10;;;;;;;9.73;59.13;99951.44;1707551;83;21186;-51
2021/04/03 00:40:48;;;;;;;10.25;7.60;;;;;;;9.75;59.12;99950.97;1731785;82;21324;-52
2021/04/03 00:43:18;;;;;;;9.50;6.65;;;;;;;9.65;59.36;99963.83;1730595;82;21163;-52
2021/04/03 00:45:46;;;;;;;8.23;7.20;;;;;;;9.64;59.36;99957.72;1737208;82;21138;-63
2021/04/03 00:48:15;;;;;;;8.70;6.92;;;;;;;9.60;59.30;99958.65;1737263;82;21589;-51
2021/04/03 00:50:50;;;;;;;9.68;7.40;;;;;;;9.53;59.48;99956.54;1732505;81;21146;-51
2021/04/03 00:53:20;;;;;;;10.72;7.65;;;;;;;9.63;59.35;99951.16;1737434;82;21618;-51
2021/04/03 00:55:50;;;;;;;9.40;6.83;;;;;;;9.65;59.13;99955.52;1733967;82;21158;-64
2021/04/03 00:58:20;;;;;;;8.95;6.67;;;;;;;9.70;59.22;99951.48;1723901;83;21277;-51
2021/04/03 01:00:50;;;;;;;8.80;7.30;;;;;;;9.73;59.12;99950.55;1676136;84;21156;-51
2021/04/03 01:03:20;;;;;;;8.70;6.50;;;;;;;9.78;59.04;99955.30;1670876;84;21146;-63
2021/04/03 01:05:49;;;;;;;8.90;7.05;;;;;;;9.76;58.68;99953.14;1712556;84;21167;-51
2021/04/03 01:08:20;;;;;;;8.05;6.67;;;;;;;9.68;58.75;99955.89;1757230;80;21337;-51
2021/04/03 01:10:50;;;;;;;8.88;6.78;;;;;;;9.71;58.49;99942.71;1758308;80;21126;-52
2021/04/03 01:13:43;;;;;;;8.15;6.42;;;;;;;9.62;58.45;99941.53;1723685;83;21166;-52
2021/04/03 01:16:36;;;;;;;7.97;6.45;;;;;;;9.56;58.36;99935.94;1755896;82;21328;-64
2021/04/03 01:19:30;;;;;;;10.05;6.92;;;;;;;9.48;58.24;99933.44;1755271;80;21134;-64
2021/04/03 01:22:36;;;;;;;9.85;6.65;;;;;;;9.41;58.26;99933.53;1753459;82;21296;-63
2021/04/03 01:25:43;;;;;;;8.20;6.10;;;;;;;9.28;58.31;99941.58;1753242;82;21180;-50
2021/04/03 01:28:49;;;;;;;8.10;6.10;;;;;;;9.19;58.05;99941.27;1754850;80;21155;-51
2021/04/03 01:31:17;;;;;;;9.18;6.60;;;;;;;8.90;58.48;99953.45;1753263;82;21138;-63
2021/04/03 01:33:46;;;;;;;7.60;5.67;;;;;;;8.84;58.36;99963.59;1754199;82;21175;-59
2021/04/03 01:36:18;;;;;;;7.95;6.28;;;;;;;8.78;58.41;99959.30;1729783;82;21165;-50
2021/04/03 01:39:08;;;;;;;8.28;5.97;;;;;;;8.71;58.43;99949.75;1753746;82;21130;-63
2021/04/03 01:41:36;;;;;;;8.03;5.35;;;;;;;8.64;58.44;99953.33;1753590;81;21170;-63
2021/04/03 01:44:05;;;;;;;8.18;6.35;;;;;;;8.59;58.60;99952.50;1754121;82;21130;-63
2021/04/03 01:46:36;;;;;;;8.78;6.30;;;;;;;8.59;58.59;99966.94;1755220;80;21118;-51
2021/04/03 01:49:11;;;;;;;7.62;6.10;;;;;;;8.60;58.34;99969.98;1753339;81;21169;-62
2021/04/03 01:51:42;;;;;;;8.85;5.90;;;;;;;8.56;58.39;99975.72;1752998;82;21207;-51
2021/04/03 01:54:10;;;;;;;8.13;6.10;;;;;;;8.57;58.35;99984.44;1756555;80;21550;-50
2021/04/03 01:56:42;;;;;;;9.15;6.37;;;;;;;8.51;58.46;99993.68;1753277;82;21313;-51
2021/04/03 01:59:11;;;;;;;10.60;6.85;;;;;;;8.53;58.25;99995.42;1755427;82;21123;-51
2021/04/03 02:01:42;;;;;;;9.43;5.97;;;;;;;8.48;58.11;99991.94;1756258;80;21146;-50
2021/04/03 02:04:15;;;;;;;9.88;6.55;;;;;;;8.40;58.14;99981.95;1709818;82;21154;-63
2021/04/03 02:06:44;;;;;;;8.40;5.30;;;;;;;8.24;57.92;99978.16;1777423;80;21305;-63
2021/04/03 02:09:15;;;;;;;9.13;6.05;;;;;;;8.08;58.07;99981.81;1785724;80;21138;-64
2021/04/03 02:11:53;;;;;;;7.85;5.55;;;;;;;7.96;58.30;99973.59;1814139;77;22216;-55
2021/04/03 02:14:24;;;;;;;7.80;5.30;;;;;;;7.82;58.48;99975.90;1803493;79;21139;-52
2021/04/03 02:16:52;;;;;;;7.20;5.22;;;;;;;7.73;58.70;99971.58;1755716;81;21139;-64
2021/04/03 02:19:20;;;;;;;7.83;5.05;;;;;;;7.75;58.51;99972.89;1697656;83;21163;-64
2021/04/03 02:21:49;;;;;;;6.37;4.58;;;;;;;7.73;58.56;99973.34;1710523;81;21519;-51
2021/04/03 02:24:17;;;;;;;5.95;4.17;;;;;;;7.66;58.72;99971.22;1749021;81;21272;-64
2021/04/03 02:26:48;;;;;;;7.42;4.35;;;;;;;7.59;58.85;99983.92;1761015;81;21716;-63
2021/04/03 02:29:17;;;;;;;7.65;4.75;;;;;;;7.58;58.88;99983.03;1760929;81;21155;-52
2021/04/03 02:31:45;;;;;;;6.92;4.05;;;;;;;7.56;58.93;99987.86;1745305;81;21143;-51
2021/04/03 02:34:12;;;;;;;6.62;4.28;;;;;;;7.57;58.96;99993.53;1733206;82;21142;-64
2021/04/03 02:36:42;;;;;;;8.30;4.65;;;;;;;7.55;58.85;100004.45;1752399;82;21640;-64
2021/04/03 02:39:10;;;;;;;5.22;3.50;;;;;;;7.57;58.78;99999.63;1730173;83;21285;-52
2021/04/03 02:41:50;;;;;;;6.85;4.08;;;;;;;7.59;58.79;99999.17;1743076;81;21602;-51
2021/04/03 02:44:29;;;;;;;6.05;4.03;;;;;;;7.58;58.71;99988.73;1732181;83;21148;-63
2021/04/03 02:47:07;;;;;;;6.58;4.40;;;;;;;7.56;58.78;99986.09;1760524;81;21151;-64
2021/04/03 02:49:41;;;;;;;5.22;3.87;;;;;;;7.58;58.75;99997.44;1755202;80;21143;-53
2021/04/03 02:52:12;;;;;;;4.80;3.20;;;;;;;7.46;58.95;99997.53;1704645;81;21277;-66
2021/04/03 02:54:41;;;;;;;6.45;3.77;;;;;;;7.48;58.77;99998.81;1758238;81;21197;-52
2021/04/03 02:57:12;;;;;;;7.25;3.95;;;;;;;7.51;58.76;100007.52;1758845;81;21154;-65
2021/04/03 02:59:47;;;;;;;5.40;3.72;;;;;;;7.38;59.14;100008.48;1706611;82;21285;-53
2021/04/03 03:02:18;;;;;;;5.00;3.27;;;;;;;7.51;58.70;100005.34;1754123;81;21254;-53
2021/04/03 03:04:47;;;;;;;5.75;3.58;;;;;;;7.51;58.56;100019.75;1732093;83;21580;-65
2021/04/03 03:07:15;;;;;;;4.87;3.35;;;;;;;7.39;58.81;100016.77;1733490;81;21257;-65
2021/04/03 03:09:46;;;;;;;5.25;3.35;;;;;;;7.36;58.74;100018.95;1691281;83;21151;-65
2021/04/03 03:12:17;;;;;;;9.55;3.35;;;;;;;7.35;58.74;100020.28;1710209;84;21547;-65
2021/04/03 03:14:46;;;;;;;6.30;3.77;;;;;;;7.31;58.76;100027.71;1779376;81;21147;-53
2021/04/03 03:17:14;;;;;;;6.03;3.52;;;;;;;7.38;58.47;100021.57;1733881;82;21116;-52
2021/04/03 03:19:43;;;;;;;6.47;3.40;;;;;;;7.35;58.49;100029.44;1741666;81;21084;-53
2021/04/03 03:22:12;;;;;;;5.20;3.15;;;;;;;7.37;58.45;100027.69;1736251;83;21148;-52
2021/04/03 03:24:39;;;;;;;5.25;3.80;;;;;;;7.38;58.45;100024.19;1693047;84;21183;-65
2021/04/03 03:27:09;;;;;;;6.20;3.67;;;;;;;7.33;58.61;100024.65;1696992;83;21202;-65
2021/04/03 03:29:38;;;;;;;4.97;3.30;;;;;;;7.33;58.61;100032.50;1712748;84;21103;-52
2021/04/03 03:32:06;;;;;;;6.17;3.35;;;;;;;7.32;58.58;100025.52;1727366;82;21622;-65
2021/04/03 03:34:36;;;;;;;6.70;3.40;;;;;;;7.33;58.64;100032.50;1720301;80;21136;-66
2021/04/03 03:37:05;;;;;;;6.22;3.30;;;;;;;7.36;58.68;100028.11;1768099;79;21119;-52
2021/04/03 03:39:35;;;;;;;5.12;3.50;;;;;;;7.40;58.61;100027.22;1777928;80;21159;-51
2021/04/03 03:42:05;;;;;;;8.00;3.37;;;;;;;7.43;58.79;100021.11;1744641;82;21301;-52
2021/04/03 03:44:33;;;;;;;7.65;2.95;;;;;;;7.53;59.05;100018.85;1783402;79;21095;-65
2021/04/03 03:47:04;;;;;;;7.72;3.47;;;;;;;7.64;58.83;100016.20;1741304;82;21140;-65
2021/04/03 03:49:33;;;;;;;4.90;2.98;;;;;;;7.69;58.51;100013.53;1778062;81;21120;-65
2021/04/03 03:52:04;;;;;;;6.15;3.02;;;;;;;7.67;58.10;100008.74;1779146;81;21324;-52
2021/04/03 03:54:34;;;;;;;7.50;3.10;;;;;;;7.56;57.98;100010.13;1754943;80;21147;-52
2021/04/03 03:57:04;;;;;;;6.12;3.30;;;;;;;7.48;58.08;100014.11;1773559;81;21234;-54
2021/04/03 03:59:33;;;;;;;11.63;3.60;;;;;;;7.41;58.15;100005.84;1772962;81;21123;-53
2021/04/03 04:02:01;;;;;;;5.55;3.25;;;;;;;7.37;58.29;100004.98;1779093;79;21238;-54
2021/04/03 04:04:29;;;;;;;5.30;3.05;;;;;;;7.34;58.51;99998.44;1759551;81;21258;-65
2021/04/03 04:06:59;;;;;;;8.45;3.45;;;;;;;7.40;58.70;99999.73;1741624;81;21159;-65
2021/04/03 04:09:28;;;;;;;6.42;3.40;;;;;;;7.49;58.98;100004.06;1749503;81;21128;-65
2021/04/03 04:12:06;;;;;;;8.55;4.17;;;;;;;7.59;58.80;100004.42;1774379;79;21155;-65
2021/04/03 04:14:36;;;;;;;7.50;3.20;;;;;;;7.70;58.94;100015.27;1772433;80;21638;-64
2021/04/03 04:17:04;;;;;;;7.72;3.62;;;;;;;7.82;58.56;100028.73;1772064;80;21146;-54
2021/04/03 04:19:34;;;;;;;7.20;2.80;;;;;;;7.85;58.69;100025.66;1773119;80;21170;-54
2021/04/03 04:22:04;;;;;;;4.58;3.08;;;;;;;7.93;58.74;100016.43;1781684;79;22502;-54
2021/04/03 04:24:33;;;;;;;8.48;3.45;;;;;;;8.02;58.70;100015.48;1741266;82;21143;-54
2021/04/03 04:27:01;;;;;;;8.78;3.87;;;;;;;8.09;58.78;100015.02;1770143;80;21277;-53
2021/04/03 04:29:30;;;;;;;6.15;3.20;;;;;;;8.19;58.76;100011.41;1775871;79;21155;-54
2021/04/03 04:32:02;;;;;;;5.40;3.25;;;;;;;8.19;58.32;100014.03;1720773;82;21143;-53
2021/04/03 04:34:31;;;;;;;4.40;2.65;;;;;;;8.19;58.30;100018.85;1771359;80;21143;-65
2021/04/03 04:37:00;;;;;;;5.17;3.17;;;;;;;8.18;58.45;100017.11;1770335;80;21170;-66
2021/04/03 04:39:30;;;;;;;5.60;3.33;;;;;;;8.18;58.42;100020.16;1780691;79;21163;-53
2021/04/03 04:41:57;;;;;;;4.90;3.40;;;;;;;8.22;58.53;100020.56;1779290;80;21134;-53
2021/04/03 04:44:26;;;;;;;6.83;3.52;;;;;;;8.27;58.58;100021.86;1770410;80;21107;-53
2021/04/03 04:46:54;;;;;;;6.40;3.45;;;;;;;8.31;58.78;100018.33;1772994;80;21143;-53
2021/04/03 04:49:22;;;;;;;8.75;3.55;;;;;;;8.40;58.82;100018.22;1778728;79;21143;-54
2021/04/03 04:51:50;;;;;;;6.12;3.60;;;;;;;8.51;58.81;100022.53;1776950;80;21110;-54
2021/04/03 04:54:20;;;;;;;5.45;3.08;;;;;;;8.60;58.82;100021.14;1772792;80;21131;-53
2021/04/03 04:56:51;;;;;;;4.85;3.37;;;;;;;8.71;58.82;100025.84;1772433;79;21107;-54
2021/04/03 04:59:21;;;;;;;6.17;3.10;;;;;;;8.81;58.71;100023.13;1777538;80;21155;-53
2021/04/03 05:01:50;;;;;;;3.87;2.65;;;;;;;8.89;58.81;100019.95;1768768;80;21135;-54
2021/04/03 05:04:19;;;;;;;6.42;3.52;;;;;;;9.00;58.81;100015.91;1774848;80;21582;-55
2021/04/03 05:06:46;;;;;;;6.03;3.30;;;;;;;9.11;58.52;100018.41;1778187;79;21131;-54
2021/04/03 05:09:15;;;;;;;6.65;3.45;;;;;;;9.20;58.54;100021.78;1778099;80;21195;-54
2021/04/03 05:11:43;;;;;;;6.20;2.90;;;;;;;9.29;58.41;100026.04;1771436;80;21160;-54
2021/04/03 05:14:11;;;;;;;13.18;9.13;;;;;;;9.41;58.19;100038.59;1734827;81;21568;-65
2021/04/03 05:16:40;;;;;;;6.78;4.72;;;;;;;9.49;58.07;100031.03;1689563;84;21582;-65
2021/04/03 05:19:08;;;;;;;6.87;5.20;;;;;;;9.59;58.06;100026.55;1760462;81;21163;-64
2021/04/03 05:21:35;;;;;;;7.67;4.05;;;;;;;9.73;58.72;100034.66;1759801;81;21119;-66
2021/04/03 05:24:04;;;;;;;5.17;3.27;;;;;;;9.93;58.61;100037.88;1759144;80;21123;-55
2021/04/03 05:26:31;;;;;;;5.25;3.25;;;;;;;10.10;57.97;100042.02;1738123;81;21095;-66
2021/04/03 05:28:59;;;;;;;4.72;3.25;;;;;;;10.23;57.61;100048.80;1760872;81;21118;-66
2021/04/03 05:31:28;;;;;;;5.97;2.95;;;;;;;10.37;57.83;100051.66;1730375;83;21183;-63
2021/04/03 05:33:55;;;;;;;6.95;3.02;;;;;;;10.51;57.56;100053.64;1752982;80;21119;-63
2021/04/03 05:36:25;;;;;;;4.75;2.77;;;;;;;10.62;57.34;100052.56;1771092;80;21179;-63
2021/04/03 05:38:53;;;;;;;4.80;3.10;;;;;;;10.70;56.95;100052.87;1760566;81;21574;-63
2021/04/03 05:41:21;;;;;;;4.78;3.05;;;;;;;10.80;56.95;100056.19;1758497;81;21167;-52
2021/04/03 05:43:51;;;;;;;4.65;2.80;;;;;;;10.95;56.91;100067.34;1742454;80;21166;-51
2021/04/03 05:46:19;;;;;;;7.65;2.92;;;;;;;11.10;56.13;100070.98;1756590;81;21741;-62
2021/04/03 05:48:47;;;;;;;6.10;3.30;;;;;;;11.27;55.72;100071.11;1752401;81;21135;-63
2021/04/03 05:51:17;;;;;;;7.75;3.08;;;;;;;11.33;55.21;100070.11;1738746;80;21538;-63
2021/04/03 05:53:45;;;;;;;6.28;3.20;;;;;;;11.33;54.88;100075.38;1761679;80;21127;-63
2021/04/03 05:56:14;;;;;;;4.42;3.05;;;;;;;11.36;54.39;100078.84;1760962;81;21652;-63
2021/04/03 05:58:47;;;;;;;4.80;3.25;;;;;;;11.43;54.82;100085.72;1759828;81;21178;-51
2021/04/03 06:01:15;;;;;;;4.03;2.72;;;;;;;11.55;54.38;100086.34;1756843;80;21139;-63
2021/04/03 06:03:43;;;;;;;5.42;2.62;;;;;;;11.65;53.87;100102.85;1757461;81;21146;-52
2021/04/03 06:06:11;;;;;;;4.62;2.85;;;;;;;11.72;53.60;100104.00;1760421;81;21580;-63
2021/04/03 06:08:40;;;;;;;4.87;2.72;;;;;;;11.84;53.16;100117.36;1742841;81;21114;-63
2021/04/03 06:11:18;;;;;;;6.70;2.83;;;;;;;11.93;52.86;100114.96;1765004;80;21183;-51
2021/04/03 06:14:02;;;;;;;3.80;2.30;;;;;;;12.07;52.37;100112.07;1742792;82;21136;-51
2021/04/03 06:16:37;;;;;;;5.60;2.67;;;;;;;12.32;52.30;100111.48;1778521;79;21147;-51
2021/04/03 06:19:21;;;;;;;5.20;2.60;;;;;;;12.45;51.08;100109.41;1772160;81;21167;-51
2021/04/03 06:22:00;;;;;;;4.35;2.80;;;;;;;12.57;51.58;100114.40;1743656;82;21303;-63
2021/04/03 06:24:37;;;;;;;5.33;2.72;;;;;;;12.68;51.22;100116.77;1744165;82;21536;-63
2021/04/03 06:27:08;;;;;;;7.92;2.90;;;;;;;12.79;51.32;100118.69;1744113;82;21148;-51
2021/04/03 06:29:43;;;;;;;4.45;2.90;;;;;;;12.96;50.75;100123.11;1744167;82;21551;-51
2021/04/03 06:32:25;;;;;;;5.83;3.30;;;;;;;13.06;50.21;100114.04;1778930;81;21150;-63
2021/04/03 06:34:54;;;;;;;5.90;3.10;;;;;;;13.18;50.58;100114.16;1744341;82;21290;-63
2021/04/03 06:37:35;;;;;;;5.22;2.87;;;;;;;13.32;50.38;100109.80;1737289;82;21186;-63
2021/04/03 06:40:13;;;;;;;6.03;2.77;;;;;;;13.51;50.15;100112.38;1705266;84;21193;-52
2021/04/03 06:42:51;;;;;;;3.80;2.70;;;;;;;13.69;48.97;100108.77;1706619;84;21188;-52
2021/04/03 06:45:27;;;;;;;5.75;2.60;;;;;;;13.79;48.94;100110.23;1708118;82;21583;-63
2021/04/03 06:48:06;;;;;;;4.72;2.80;;;;;;;13.90;49.48;100119.64;1778704;81;21155;-52
2021/04/03 06:50:37;;;;;;;5.25;2.92;;;;;;;14.08;48.87;100116.88;1778475;81;21184;-63
2021/04/03 06:53:07;;;;;;;4.95;2.72;;;;;;;14.26;47.86;100117.64;1744333;82;21216;-62
2021/04/03 06:55:35;;;;;;;5.60;2.90;;;;;;;14.41;48.25;100129.52;1778537;81;21143;-63
2021/04/03 06:58:04;;;;;;;5.22;2.25;;;;;;;14.64;47.55;100130.53;1714525;83;21187;-53
2021/04/03 07:00:33;;;;;;;5.83;2.37;;;;;;;14.82;47.57;100133.05;1771894;81;21147;-53
2021/04/03 07:03:23;;;;;;;4.08;2.22;;;;;;;15.02;46.56;100132.84;1744367;82;21160;-62
2021/04/03 07:05:51;;;;;;;4.40;2.40;;;;;;;15.22;45.55;100128.63;1754697;81;21180;-62
2021/04/03 07:08:20;;;;;;;7.58;2.58;;;;;;;15.51;45.92;100122.72;1739831;82;21171;-62
2021/04/03 07:10:48;;;;;;;3.58;1.82;;;;;;;15.68;45.52;100114.98;1762038;80;21129;-53
2021/04/03 07:13:18;;;;;;;4.07;2.20;;;;;;;15.99;46.23;100112.98;1806143;79;21149;-53
2021/04/03 07:15:45;;;;;;;4.20;2.62;;;;;;;16.37;45.09;100102.61;1761726;80;21526;-53
2021/04/03 07:18:14;;;;;;;3.85;2.17;;;;;;;16.47;44.01;100096.00;1725285;83;21102;-53
2021/04/03 07:20:42;;;;;;;4.22;1.72;;;;;;;16.57;44.66;100093.81;1725139;83;21591;-62
2021/04/03 07:23:12;;;;;;;3.05;1.95;;;;;;;16.88;43.24;100095.19;1741002;82;21175;-63
2021/04/03 07:25:43;;;;;;;3.12;1.70;;;;;;;17.12;42.91;100100.38;1754079;80;21592;-63
2021/04/03 07:28:10;;;;;;;2.17;1.40;;;;;;;17.30;42.23;100098.70;1723744;82;21603;-63
2021/04/03 07:30:45;;;;;;;3.72;1.57;;;;;;;17.57;41.86;100093.52;1751750;82;21610;-62
2021/04/03 07:33:23;;;;;;;5.70;2.58;;;;;;;17.69;39.23;100089.82;1752127;82;21305;-62
2021/04/03 07:35:58;;;;;;;3.17;1.82;;;;;;;17.77;39.30;100095.26;1723591;83;21563;-62
2021/04/03 07:38:30;;;;;;;4.28;1.30;;;;;;;17.91;39.72;100105.25;1748946;82;21194;-63
2021/04/03 07:41:13;;;;;;;4.85;1.77;;;;;;;17.95;36.63;100105.50;1730274;83;21162;-52
2021/04/03 07:43:48;;;;;;;;;;;;;;;17.93;37.33;100105.59;1739297;82;21147;-52
2021/04/03 07:46:23;;;;;;;2.47;1.37;;;;;;;18.04;35.85;100101.11;1751804;82;20249;-52
2021/04/03 07:48:55;;;;;;;3.83;2.20;;;;;;;18.23;37.47;100102.41;1751899;81;21155;-53
2021/04/03 07:51:30;;;;;;;3.60;1.90;;;;;;;18.25;34.07;100102.36;1726044;82;21212;-53
2021/04/03 07:54:00;;;;;;;9.13;4.97;;;;;;;18.14;35.42;100109.51;1718150;81;21148;-53
2021/04/03 07:56:50;;;;;;;6.10;3.10;;;;;;;18.02;34.18;100109.64;1702387;84;21133;-53
2021/04/03 07:59:47;;;;;;;4.05;1.92;;;;;;;17.94;35.46;100098.00;1706256;83;21521;-53
2021/04/03 08:02:22;;;;;;;4.10;1.30;;;;;;;18.21;37.55;100100.78;1725196;81;21614;-53
2021/04/03 08:04:50;;;;;;;9.75;1.77;;;;;;;18.64;33.85;100101.77;1731592;82;22478;-52
2021/04/03 08:07:21;;;;;;;2.80;1.22;;;;;;;18.88;32.32;100099.20;1729980;83;21376;-54
2021/04/03 08:09:49;;;;;;;2.17;0.90;;;;;;;19.07;33.91;100103.59;1733202;82;21684;-53
2021/04/03 08:12:18;;;;;;;1.45;0.80;;;;;;;19.37;33.13;100106.06;1723287;81;21624;-52
2021/04/03 08:14:50;;;;;;;1.87;0.90;;;;;;;19.58;29.18;100100.91;1666782;86;21576;-54
2021/04/03 08:17:19;;;;;;;1.32;0.80;;;;;;;19.53;30.52;100108.76;1705683;83;21210;-55
2021/04/03 08:19:48;;;;;;;1.85;0.82;;;;;;;19.45;28.62;100118.52;1733050;80;21617;-54
2021/04/03 08:22:17;;;;;;;1.70;1.07;;;;;;;19.28;30.10;100109.59;1693171;82;21202;-53
2021/04/03 08:24:57;;;;;;;2.10;1.30;;;;;;;19.29;29.80;100115.33;1718826;83;21634;-54
2021/04/03 08:27:36;;;;;;;1.98;1.05;;;;;;;19.40;31.10;100128.58;1718887;83;21296;-64
2021/04/03 08:30:20;;;;;;;1.65;0.95;;;;;;;19.61;30.35;100126.11;1754996;80;21177;-65
2021/04/03 08:32:36;;;;;;;2.77;1.12;;;;;;;19.86;30.57;100130.09;1735413;82;21559;-64
2021/04/03 08:35:05;;;;;;;1.52;0.90;;;;;;;19.87;29.42;100123.80;1728346;82;21583;-66
2021/04/03 08:37:33;;;;;;;1.40;0.82;;;;;;;20.00;28.45;100127.17;1750120;80;21167;-64
2021/04/03 08:40:00;;;;;;;2.62;1.00;;;;;;;20.06;27.53;100130.34;1755640;81;21586;-64
2021/04/03 08:42:28;;;;;;;2.17;1.00;;;;;;;20.18;28.99;100125.27;1754561;82;21634;-64
2021/04/03 08:44:56;;;;;;;2.70;0.88;;;;;;;20.30;28.24;100127.25;1754697;82;21186;-53
2021/04/03 08:47:24;;;;;;;2.15;0.80;;;;;;;20.46;27.49;100124.55;1759078;80;21582;-64
2021/04/03 08:49:52;;;;;;;2.52;1.10;;;;;;;20.61;27.96;100120.12;1751741;82;21167;-64
2021/04/03 08:52:20;;;;;;;1.67;1.00;;;;;;;20.57;26.36;100105.67;1754612;82;21870;-64
2021/04/03 08:54:48;;;;;;;3.08;1.10;;;;;;;20.57;28.02;100105.20;1695426;83;21297;-65
2021/04/03 08:57:32;;;;;;;4.78;0.98;;;;;;;20.60;27.26;100109.04;1750675;80;21571;-64
2021/04/03 09:00:01;;;;;;;2.22;1.15;;;;;;;20.71;27.04;100120.92;1753798;82;21196;-64
2021/04/03 09:02:31;;;;;;;1.95;1.02;;;;;;;20.92;25.40;100112.13;1754390;82;21155;-64
2021/04/03 09:05:04;;;;;;;2.08;1.00;;;;;;;21.07;26.15;100114.36;1757204;80;21135;-65
2021/04/03 09:07:37;;;;;;;1.87;0.72;;;;;;;21.28;25.45;100109.50;1754488;81;21325;-65
2021/04/03 09:10:20;;;;;;;1.50;0.80;;;;;;;21.30;26.06;100101.36;1754156;82;21204;-64
2021/04/03 09:12:49;;;;;;;1.55;0.72;;;;;;;21.31;25.04;100091.05;1758634;80;21222;-64
2021/04/03 09:15:29;;;;;;;1.60;0.88;;;;;;;21.41;25.02;100069.45;1768277;80;21164;-64
2021/04/03 09:17:58;;;;;;;2.22;0.70;;;;;;;21.64;26.35;100067.14;1715277;82;21187;-64
2021/04/03 09:20:28;;;;;;;1.98;0.80;;;;;;;21.95;26.08;100080.77;1731862;83;21190;-64
2021/04/03 09:23:06;;;;;;;1.72;0.80;;;;;;;21.82;24.34;100091.42;1735360;80;21147;-64
2021/04/03 09:25:34;;;;;;;1.57;0.80;;;;;;;21.67;23.75;100085.23;1765564;79;21669;-64
2021/04/03 09:28:11;;;;;;;3.60;1.10;;;;;;;21.64;23.48;100084.55;1748968;81;21279;-64
2021/04/03 09:30:46;;;;;;;2.47;0.88;;;;;;;21.61;24.38;100086.92;1759220;81;21186;-64
2021/04/03 09:33:25;;;;;;;2.65;1.35;;;;;;;21.72;24.33;100086.77;1769921;80;21154;-64
2021/04/03 09:36:12;;;;;;;2.27;0.80;;;;;;;21.87;25.63;100084.42;1785325;80;21158;-64
2021/04/03 09:38:40;;;;;;;2.33;0.82;;;;;;;21.91;25.53;100084.61;1762695;81;21175;-54
2021/04/03 09:41:33;;;;;;;2.17;1.00;;;;;;;21.92;23.49;100083.65;1763058;80;21183;-54
2021/04/03 09:44:01;;;;;;;3.60;1.05;;;;;;;22.08;24.35;100096.06;1732629;83;21166;-63
2021/04/03 09:46:29;;;;;;;1.20;0.82;;;;;;;22.26;24.75;100100.69;1737552;81;21605;-63
2021/04/03 09:48:58;;;;;;;2.95;1.20;;;;;;;22.50;25.06;100104.09;1732340;83;21174;-64
2021/04/03 09:51:25;;;;;;;2.65;1.07;;;;;;;23.08;25.76;100098.39;1758596;80;21679;-64
2021/04/03 09:53:53;;;;;;;2.08;1.10;;;;;;;23.62;24.72;100097.34;1758808;80;21627;-64
2021/04/03 09:56:21;;;;;;;2.40;0.90;;;;;;;23.90;22.29;100097.52;1733259;81;21158;-53
2021/04/03 09:58:50;;;;;;;1.95;1.00;;;;;;;23.95;22.78;100099.88;1732075;83;21158;-64
2021/04/03 10:01:18;;;;;;;1.72;0.90;;;;;;;23.85;23.17;100107.73;1768010;80;21614;-54
2021/04/03 10:03:48;;;;;;;2.47;1.10;;;;;;;23.97;22.08;100107.34;1763171;81;21143;-65
2021/04/03 10:06:15;;;;;;;2.65;0.90;;;;;;;23.98;22.48;100117.59;1762280;80;21523;-52
2021/04/03 10:08:43;;;;;;;1.37;0.80;;;;;;;23.98;23.78;100120.28;1765497;80;21139;-64
2021/04/03 10:11:11;;;;;;;3.30;0.93;;;;;;;24.22;23.47;100127.07;1764959;79;21179;-54
2021/04/03 10:13:39;;;;;;;1.67;0.93;;;;;;;23.95;20.21;100125.41;1754460;80;21131;-64
2021/04/03 10:16:07;;;;;;;2.12;1.37;;;;;;;23.69;22.27;100129.48;1754711;82;21300;-53
2021/04/03 10:18:36;;;;;;;2.65;1.10;;;;;;;23.80;22.46;100129.20;1792795;79;21143;-53
2021/04/03 10:21:07;;;;;;;2.98;1.10;;;;;;;23.95;22.37;100125.88;1751376;82;21116;-63
2021/04/03 10:23:34;;;;;;;2.22;1.02;;;;;;;23.90;22.29;100123.05;1736354;82;21120;-53
2021/04/03 10:26:03;;;;;;;2.05;1.02;;;;;;;23.68;22.08;100126.42;1724449;83;21228;-53
2021/04/03 10:28:31;;;;;;;3.45;1.82;;;;;;;23.67;22.36;100120.67;1787980;79;21126;-54
2021/04/03 10:30:59;;;;;;;3.90;2.30;;;;;;;23.59;20.87;100125.25;1786725;80;21619;-53
2021/04/03 10:33:27;;;;;;;10.78;5.90;;;;;;;23.26;20.81;100127.14;1723615;82;21435;-54
2021/04/03 10:35:56;;;;;;;10.68;5.47;;;;;;;23.03;21.39;100137.13;1760101;78;21154;-53
2021/04/03 10:38:24;;;;;;;5.40;2.35;;;;;;;23.00;21.16;100126.61;1774575;81;21146;-54
2021/04/03 10:40:52;;;;;;;3.12;1.20;;;;;;;23.15;21.64;100123.84;1754527;81;21177;-63
2021/04/03 10:43:20;;;;;;;2.90;1.12;;;;;;;23.34;22.31;100120.77;1728784;82;21149;-63
2021/04/03 10:45:47;;;;;;;3.35;1.40;;;;;;;23.59;21.69;100125.25;1738497;81;21574;-64
2021/04/03 10:48:15;;;;;;;2.55;1.15;;;;;;;23.89;21.92;100115.95;1736624;83;21642;-63
2021/04/03 10:50:43;;;;;;;3.08;0.82;;;;;;;24.01;20.89;100110.22;1735618;82;21173;-63
2021/04/03 10:53:11;;;;;;;2.77;0.90;;;;;;;23.85;19.70;100113.11;1736280;82;21182;-63
2021/04/03 10:55:41;;;;;;;2.15;1.15;;;;;;;23.50;20.50;100113.81;1738681;81;21130;-63
2021/04/03 10:58:11;;;;;;;2.08;0.95;;;;;;;23.47;21.53;100112.69;1736555;83;21574;-63
2021/04/03 11:00:39;;;;;;;2.77;1.02;;;;;;;23.50;19.97;100109.79;1736427;82;21163;-64
2021/04/03 11:03:08;;;;;;;1.42;0.78;;;;;;;23.25;21.02;100112.00;1729441;81;21588;-63
2021/04/03 11:05:36;;;;;;;2.10;1.25;;;;;;;23.26;21.38;100115.06;1737045;82;21585;-63
2021/04/03 11:08:05;;;;;;;2.90;1.20;;;;;;;23.72;21.36;100117.67;1736508;83;21661;-63
2021/04/03 11:10:33;;;;;;;1.27;0.70;;;;;;;23.95;21.63;100115.13;1736448;82;21633;-63
2021/04/03 11:13:02;;;;;;;2.58;1.00;;;;;;;24.26;21.40;100111.09;1739112;81;21123;-63
2021/04/03 11:15:30;;;;;;;2.53;1.10;;;;;;;24.64;20.26;100105.15;1693616;85;21336;-63
2021/04/03 11:17:59;;;;;;;2.20;0.88;;;;;;;24.87;20.31;100096.70;1755077;81;21186;-64
2021/04/03 11:20:27;;;;;;;2.00;0.95;;;;;;;24.73;19.07;100094.20;1760622;81;21149;-63
2021/04/03 11:22:57;;;;;;;3.05;0.93;;;;;;;24.35;19.80;100093.39;1756421;80;21579;-63
2021/04/03 11:25:25;;;;;;;1.25;0.70;;;;;;;24.38;19.65;100083.75;1747954;81;21127;-63
2021/04/03 11:27:54;;;;;;;1.85;0.78;;;;;;;24.43;18.83;100088.30;1731223;81;21339;-64
2021/04/03 11:30:24;;;;;;;1.40;0.75;;;;;;;24.66;20.05;100076.30;1730841;80;21175;-64
2021/04/03 11:32:53;;;;;;;3.62;1.00;;;;;;;24.82;20.04;100071.97;1763936;80;21586;-63
2021/04/03 11:35:22;;;;;;;2.00;0.90;;;;;;;25.06;20.65;100065.16;1760578;81;21607;-64
2021/04/03 11:37:50;;;;;;;2.33;0.90;;;;;;;25.06;20.67;100067.86;1739225;81;21178;-64
2021/04/03 11:40:19;;;;;;;1.05;0.70;;;;;;;25.05;20.82;100068.83;1744643;80;21166;-63
2021/04/03 11:42:52;;;;;;;3.35;1.02;;;;;;;24.95;19.96;100067.83;1760589;81;21230;-64
2021/04/03 11:45:19;;;;;;;1.60;0.60;;;;;;;24.84;21.08;100067.80;1760126;81;21627;-53
2021/04/03 11:47:47;;;;;;;1.65;0.90;;;;;;;24.74;20.76;100067.66;1761029;81;21626;-63
2021/04/03 11:50:15;;;;;;;1.92;0.90;;;;;;;24.59;20.32;100069.66;1765200;80;21155;-63